GCRRGCXO

Guest
Details From GCRR - Lanzarote
To GCXO - Tenerife Norte - Los Rodeos
Flight Number -
Tags generated
Created
Modified
Stats Distance 148 nm / 273 km
Max Altitude 16,700 ft / 5,090 m
Waypoints 3
Social Downloads 7
Likes 0
Share VATSIM

Download

Looking for another format? Having issues loading an existing format? Contact us
Advertisement - Login to hide

Notes

Basic altitude profile: - Ascent Rate: 2500ft/min - Ascent Speed: 250kts - Cruise Altitude: 35000ft - Cruise Speed: 420kts - Descent Rate: 1500ft/min - Descent Speed: 250kts

Route

GCRR LARYS GCXO

ID Type Via Altitude Latitude Longitude Leg Dist Tot Dist Heading (true) Name
O GCRR APT - 0 ft / 0 m 28.94547˚ -13.60522˚ - 0 nm - Lanzarote
LARYS FIX - 16,700 ft / 5,090 m 28.87183˚ -14.83429˚ 64 nm 64 nm 266° / 266° -
O GCXO APT - 0 ft / 0 m 28.48266˚ -16.34154˚ 82 nm 147 nm 254° / 253° Tenerife Norte - Los Rodeos

Altitude Profile

Advertisement - Login to hide

GCRR

Details ICAO GCRR (ACE)
Name Lanzarote
Region Canary Islands
Timezone Atlantic/Canary (UTC+1.0)
Stats Elevation 0 ft / 0 m (AMSL)
Location 28.945466° -13.605223°
Runways 1
Magnetic Variation 3.917° W

METAR

GCRR 200930Z 34008KT 310V020 9999 BKN027 22/15 Q1018

Decode

TAF

TAF GCRR 200800Z 2009/2109 35008KT 9999 SCT030 TX26/2015Z TN19/2105Z PROB40 TEMPO 2010/2018 17010KT

Decode

Departure Runways

ID Width Length Bearing (true) Bearing (mag) Surface Threshold Offset Overrun Length
03 148 ft / 45 m 7,893 ft / 2,406 m 26.90° 30.82° Asphalt 197 ft / 60 m 197 ft / 60 m
21 148 ft / 45 m 7,893 ft / 2,406 m 206.91° 210.83° Asphalt 197 ft / 60 m 197 ft / 60 m

GCXO

Details ICAO GCXO (TFN)
Name Tenerife Norte - Los Rodeos
Region Canary Islands
Timezone Atlantic/Canary (UTC+1.0)
Stats Elevation 2,076 ft / 633 m (AMSL)
Location 28.482656° -16.341541°
Runways 1
Magnetic Variation 4.942° W

METAR

GCXO 200930Z 31011KT 280V350 9999 BKN011 17/14 Q1020 NOSIG

Decode

TAF

TAF AMD GCXO 200859Z 2009/2109 31012KT 9999 FEW014 TX22/2015Z TN15/2105Z TEMPO 2009/2011 BKN011 TEMPO 2019/2108 4500 BCFG BKN007 PROB30 TEMPO 2019/2108 BKN012

Decode

Destination Runways

ID Width Length Bearing (true) Bearing (mag) Surface Threshold Offset Overrun Length
12 148 ft / 45 m 11,165 ft / 3,403 m 110.67° 115.61° Asphalt 0 ft / 0 m 197 ft / 60 m
30 148 ft / 45 m 11,165 ft / 3,403 m 290.69° 295.63° Asphalt 0 ft / 0 m 197 ft / 60 m

Approach Navaids

Runway Type Ident Frequency Range Bearing (true) Bearing (mag) Slope Elevation
12 Localiser INOR 108.70 MHz 18 nm / 33 km 110.69° 115.63° - 3,356 ft / 1,023 m (AMSL)
12 Glidescope INOR 108.70 MHz 10 nm / 19 km 110.68° 115.62° 3.00° 2,070 ft / 631 m (AMSL)
12 DME INOR 108.70 MHz 18 nm / 33 km - - - 2,070 ft / 631 m (AMSL)
30 Localiser ITF 110.30 MHz 18 nm / 33 km 290.67° 295.61° - 2,025 ft / 617 m (AMSL)
30 Glidescope ITF 110.30 MHz 10 nm / 19 km 290.68° 295.62° 3.00° 2,025 ft / 617 m (AMSL)
30 DME ITF 110.30 MHz 18 nm / 33 km - - - 2,031 ft / 619 m (AMSL)

Popular Alternatives